Time;durP1;ratioP1;P1;durP2;ratioP2;P2;SDS_P1;SDS_P2;PMS_P1;PMS_P2;Temp;Humidity;BMP_temperature;BMP_pressure;BME280_temperature;BME280_humidity;BME280_pressure;Samples;Min_cycle;Max_cycle;Signal;HPM_P1;HPM_P2
2022/10/17 00:02:05;;;;;;;12.52;6.38;;;11.20;99.90;;;;;;4866045;29;20041;-83
2022/10/17 00:04:30;;;;;;;10.63;6.10;;;11.40;99.90;;;;;;4865899;29;20456;-83
2022/10/17 00:06:56;;;;;;;16.15;6.80;;;11.30;99.90;;;;;;4854258;29;20053;-82
2022/10/17 00:09:22;;;;;;;11.85;6.90;;;11.20;99.90;;;;;;4867975;29;20577;-82
2022/10/17 00:11:47;;;;;;;15.05;7.00;;;11.30;99.90;;;;;;4852252;29;20099;-82
2022/10/17 00:14:13;;;;;;;14.57;7.32;;;11.30;99.90;;;;;;4868613;29;20484;-83
2022/10/17 00:16:39;;;;;;;16.73;7.75;;;11.30;99.90;;;;;;4851537;29;20048;-82
2022/10/17 00:19:06;;;;;;;15.80;6.70;;;11.30;99.90;;;;;;4862359;29;20514;-83
2022/10/17 00:21:32;;;;;;;11.98;6.47;;;11.30;99.90;;;;;;4876663;29;20136;-83
2022/10/17 00:23:58;;;;;;;13.77;6.75;;;11.30;99.90;;;;;;4866649;29;20048;-83
2022/10/17 00:26:24;;;;;;;11.38;6.30;;;11.40;99.90;;;;;;4868946;29;20086;-83
2022/10/17 00:28:52;;;;;;;12.55;6.22;;;11.30;99.90;;;;;;4866437;29;20060;-83
2022/10/17 00:31:19;;;;;;;14.57;6.10;;;11.50;99.90;;;;;;4869217;29;20044;-82
2022/10/17 00:33:45;;;;;;;11.63;5.93;;;11.50;99.90;;;;;;4876614;29;20125;-83
2022/10/17 00:36:14;;;;;;;14.80;5.85;;;11.50;99.90;;;;;;4870833;29;20139;-83
2022/10/17 00:38:42;;;;;;;9.80;5.75;;;11.40;99.90;;;;;;4877183;29;20440;-83
2022/10/17 00:41:09;;;;;;;16.10;6.30;;;11.50;99.90;;;;;;4851664;29;20048;-83
2022/10/17 00:43:49;;;;;;;12.65;5.95;;;11.60;99.90;;;;;;4869873;29;20132;-83
2022/10/17 00:46:15;;;;;;;16.10;5.80;;;11.70;99.90;;;;;;4851985;29;20115;-83
2022/10/17 00:48:41;;;;;;;8.73;5.25;;;11.60;99.90;;;;;;4852205;29;20056;-83
2022/10/17 00:51:07;;;;;;;10.60;5.45;;;11.80;99.90;;;;;;4863177;29;20289;-83
2022/10/17 00:53:36;;;;;;;11.77;5.22;;;11.80;99.90;;;;;;4876125;29;20098;-82
2022/10/17 00:56:02;;;;;;;9.45;5.13;;;12.00;99.90;;;;;;4864489;29;20051;-83
2022/10/17 00:58:27;;;;;;;11.23;5.07;;;12.10;99.90;;;;;;4866784;29;20392;-83
2022/10/17 01:00:53;;;;;;;15.63;5.53;;;12.10;99.90;;;;;;4876842;29;20040;-82
2022/10/17 01:03:19;;;;;;;11.32;4.68;;;12.20;99.90;;;;;;4855549;29;20051;-82
2022/10/17 01:05:45;;;;;;;12.90;5.13;;;12.30;99.90;;;;;;4867241;29;20084;-83
2022/10/17 01:08:12;;;;;;;11.70;5.00;;;12.30;99.90;;;;;;4851867;29;20439;-83
2022/10/17 01:10:53;;;;;;;9.32;5.15;;;12.40;99.90;;;;;;4850464;29;20045;-82
2022/10/17 01:13:39;;;;;;;13.18;5.40;;;12.30;99.90;;;;;;4854165;29;20048;-83
2022/10/17 01:16:21;;;;;;;13.20;5.30;;;12.40;99.90;;;;;;4883074;29;20052;-83
2022/10/17 01:19:20;;;;;;;8.88;4.78;;;12.50;99.90;;;;;;4852907;29;20067;-82
2022/10/17 01:22:17;;;;;;;10.10;4.78;;;12.40;99.90;;;;;;4891009;29;20053;-83
2022/10/17 01:25:07;;;;;;;8.70;5.10;;;12.60;99.90;;;;;;4853780;29;20048;-83
2022/10/17 01:28:14;;;;;;;11.13;4.82;;;12.60;99.90;;;;;;4853908;29;20048;-83
2022/10/17 01:31:03;;;;;;;10.82;5.07;;;12.50;99.90;;;;;;4886577;29;20131;-83
2022/10/17 01:33:40;;;;;;;12.00;5.35;;;12.50;99.90;;;;;;4869939;29;20061;-83
2022/10/17 01:36:17;;;;;;;12.63;5.57;;;12.50;99.90;;;;;;4870046;29;20054;-83
2022/10/17 01:38:48;;;;;;;10.75;4.97;;;12.60;99.90;;;;;;4886218;29;20669;-83
2022/10/17 01:41:26;;;;;;;12.27;4.80;;;12.60;99.90;;;;;;4862535;29;20051;-82
2022/10/17 01:44:13;;;;;;;8.15;4.90;;;12.70;99.90;;;;;;4877970;29;20048;-83
2022/10/17 01:46:43;;;;;;;11.75;5.47;;;12.70;99.90;;;;;;4866771;29;20068;-83
2022/10/17 01:49:12;;;;;;;11.40;5.30;;;12.60;99.90;;;;;;4853675;29;20112;-83
2022/10/17 01:51:53;;;;;;;8.60;5.60;;;12.80;99.90;;;;;;4867425;29;20051;-83
2022/10/17 01:54:30;;;;;;;17.83;6.07;;;12.60;99.90;;;;;;4849214;29;20045;-83
2022/10/17 01:56:59;;;;;;;12.55;5.20;;;12.80;99.90;;;;;;4866006;29;20124;-83
2022/10/17 01:59:30;;;;;;;9.63;5.55;;;12.60;99.90;;;;;;4867432;29;20060;-83
2022/10/17 02:02:01;;;;;;;9.75;5.03;;;12.60;99.90;;;;;;4854805;29;20048;-83
2022/10/17 02:04:27;;;;;;;8.68;5.20;;;12.60;99.90;;;;;;4866296;29;20558;-83
2022/10/17 02:06:53;;;;;;;8.77;5.90;;;12.70;99.90;;;;;;4867893;29;20601;-83
2022/10/17 02:09:24;;;;;;;11.05;6.05;;;12.70;99.90;;;;;;4868138;29;20055;-83
2022/10/17 02:12:19;;;;;;;8.60;5.63;;;12.70;99.90;;;;;;4855585;29;20369;-83
2022/10/17 02:14:47;;;;;;;9.80;5.97;;;12.70;99.90;;;;;;4866420;29;20044;-83
2022/10/17 02:17:34;;;;;;;9.95;6.25;;;12.50;99.90;;;;;;4849070;29;20599;-83
2022/10/17 02:20:02;;;;;;;10.35;6.05;;;12.60;99.90;;;;;;4866442;29;20337;-83
2022/10/17 02:22:44;;;;;;;13.43;6.20;;;12.60;99.90;;;;;;4868484;29;20065;-83
2022/10/17 02:25:27;;;;;;;13.63;6.53;;;12.40;99.90;;;;;;4876664;29;20043;-83
2022/10/17 02:28:02;;;;;;;11.70;5.97;;;12.50;99.90;;;;;;4865970;29;20473;-83
2022/10/17 02:30:36;;;;;;;9.10;5.82;;;12.50;99.90;;;;;;4868454;29;20032;-83
2022/10/17 02:33:13;;;;;;;12.07;6.60;;;12.40;99.90;;;;;;4869019;29;20908;-83
2022/10/17 02:35:44;;;;;;;10.70;6.38;;;12.50;99.90;;;;;;4866896;29;20307;-83
2022/10/17 02:38:12;;;;;;;9.30;6.28;;;12.30;99.90;;;;;;4871692;29;20510;-83
2022/10/17 02:40:43;;;;;;;11.98;6.95;;;12.30;99.90;;;;;;4867854;29;20500;-83
2022/10/17 02:43:09;;;;;;;9.27;6.68;;;12.50;99.90;;;;;;4852228;29;20064;-83
2022/10/17 02:45:36;;;;;;;9.40;6.25;;;12.40;99.90;;;;;;4867924;29;20128;-83
2022/10/17 02:48:11;;;;;;;11.40;6.80;;;12.30;99.90;;;;;;4867518;29;20516;-83
2022/10/17 02:50:53;;;;;;;9.07;6.78;;;12.40;99.90;;;;;;4855421;29;20044;-83
2022/10/17 02:53:59;;;;;;;9.68;7.10;;;12.50;99.90;;;;;;4850776;29;20040;-83
2022/10/17 02:56:28;;;;;;;10.80;7.32;;;12.40;99.90;;;;;;4836050;29;20140;-82
2022/10/17 02:58:57;;;;;;;15.30;7.65;;;12.30;99.90;;;;;;4852627;29;20065;-83
2022/10/17 03:01:23;;;;;;;11.80;7.88;;;12.50;99.90;;;;;;4850844;29;20052;-83
2022/10/17 03:03:49;;;;;;;10.02;8.10;;;12.50;99.90;;;;;;4862723;29;20092;-83
2022/10/17 03:06:18;;;;;;;10.82;8.48;;;12.50;99.90;;;;;;4866408;29;20580;-83
2022/10/17 03:08:43;;;;;;;13.85;8.25;;;12.60;99.90;;;;;;4853353;29;20048;-84
2022/10/17 03:11:09;;;;;;;11.88;8.48;;;12.60;99.90;;;;;;4851268;29;20416;-83
2022/10/17 03:13:35;;;;;;;11.70;8.57;;;12.70;99.90;;;;;;4851972;29;20467;-84
2022/10/17 03:16:00;;;;;;;12.57;8.55;;;12.80;99.90;;;;;;4870706;29;20075;-83
2022/10/17 03:18:26;;;;;;;13.10;8.77;;;12.70;99.90;;;;;;4854341;29;20470;-83
2022/10/17 03:20:52;;;;;;;9.82;8.45;;;12.60;99.90;;;;;;4865106;29;20115;-83
2022/10/17 03:23:17;;;;;;;11.68;8.75;;;12.80;99.90;;;;;;4850471;29;20052;-83
2022/10/17 03:25:43;;;;;;;11.25;8.55;;;12.70;99.90;;;;;;4876499;29;20044;-83
2022/10/17 03:28:10;;;;;;;12.30;8.90;;;12.60;99.90;;;;;;4874295;29;20481;-83
2022/10/17 03:30:37;;;;;;;12.23;9.10;;;12.60;99.90;;;;;;4881313;29;20058;-83
2022/10/17 03:33:03;;;;;;;11.38;9.07;;;12.60;99.90;;;;;;4853465;29;20100;-83
2022/10/17 03:35:29;;;;;;;11.75;9.35;;;12.80;99.90;;;;;;4852326;29;20735;-83
2022/10/17 03:37:55;;;;;;;12.68;9.93;;;12.80;99.90;;;;;;4868068;29;20040;-83
2022/10/17 03:40:20;;;;;;;10.60;9.00;;;12.60;99.90;;;;;;4855568;29;20403;-83
2022/10/17 03:42:46;;;;;;;15.00;9.75;;;12.60;99.90;;;;;;4856705;29;20048;-83
2022/10/17 03:45:12;;;;;;;12.15;9.85;;;12.60;99.90;;;;;;4855452;29;20407;-83
2022/10/17 03:47:37;;;;;;;13.10;10.20;;;12.80;99.90;;;;;;4852341;29;20385;-83
2022/10/17 03:50:03;;;;;;;11.80;10.50;;;12.80;99.90;;;;;;4865843;29;20045;-84
2022/10/17 03:52:29;;;;;;;11.07;9.50;;;12.90;99.90;;;;;;4853405;29;20188;-83
2022/10/17 03:54:55;;;;;;;12.88;10.45;;;12.80;99.90;;;;;;4868321;29;20056;-83
2022/10/17 03:57:20;;;;;;;15.18;10.82;;;12.90;99.90;;;;;;4870486;29;20045;-84
2022/10/17 03:59:46;;;;;;;13.85;10.43;;;13.00;99.90;;;;;;4871030;29;20071;-84
2022/10/17 04:02:12;;;;;;;13.32;11.35;;;13.00;99.90;;;;;;4872351;29;20347;-84
2022/10/17 04:04:40;;;;;;;13.75;10.57;;;12.90;99.90;;;;;;4850687;29;20533;-83
2022/10/17 04:07:06;;;;;;;13.90;10.75;;;12.90;99.90;;;;;;4871094;29;20624;-83
2022/10/17 04:09:31;;;;;;;14.82;10.77;;;12.90;99.90;;;;;;4851633;29;20041;-84
2022/10/17 04:11:57;;;;;;;12.30;10.90;;;13.10;99.90;;;;;;4855039;29;20159;-84
2022/10/17 04:14:23;;;;;;;13.35;10.27;;;13.10;99.90;;;;;;4883751;29;20041;-84
2022/10/17 04:16:48;;;;;;;14.90;10.82;;;13.10;99.90;;;;;;4855367;29;20127;-84
2022/10/17 04:19:17;;;;;;;13.05;10.73;;;12.90;99.90;;;;;;4885647;29;20048;-84
2022/10/17 04:21:43;;;;;;;14.98;11.35;;;13.00;99.90;;;;;;4878315;29;20451;-84
2022/10/17 04:24:10;;;;;;;19.73;11.88;;;13.40;99.90;;;;;;4868558;29;20045;-84
2022/10/17 04:26:36;;;;;;;17.77;12.60;;;13.40;99.90;;;;;;4871797;29;20099;-84
2022/10/17 04:29:01;;;;;;;18.48;13.10;;;13.30;99.90;;;;;;4852321;29;20170;-84
2022/10/17 04:31:27;;;;;;;16.92;12.10;;;13.30;99.90;;;;;;4872515;29;20575;-84
2022/10/17 04:33:53;;;;;;;13.68;12.23;;;13.40;99.90;;;;;;4870000;29;20040;-84
2022/10/17 04:36:19;;;;;;;17.65;13.20;;;13.50;99.90;;;;;;4853605;29;20072;-84
2022/10/17 04:38:45;;;;;;;16.33;12.68;;;13.50;99.90;;;;;;4880697;29;20099;-83
2022/10/17 04:41:13;;;;;;;18.20;13.25;;;13.50;99.90;;;;;;4870211;29;20521;-84
2022/10/17 04:43:39;;;;;;;16.75;13.80;;;13.80;99.90;;;;;;4855392;29;20568;-84
2022/10/17 04:46:11;;;;;;;15.23;13.32;;;13.80;99.90;;;;;;4852644;29;20048;-84
2022/10/17 04:48:37;;;;;;;17.30;13.57;;;13.70;99.90;;;;;;4868507;29;20271;-84
2022/10/17 04:51:16;;;;;;;16.85;13.77;;;13.70;99.90;;;;;;4868173;29;20036;-84
2022/10/17 04:53:45;;;;;;;19.35;13.32;;;13.90;99.90;;;;;;4878394;29;20040;-84
2022/10/17 04:56:17;;;;;;;18.35;14.55;;;13.80;99.90;;;;;;4868852;29;20047;-85
2022/10/17 04:58:43;;;;;;;22.27;14.57;;;14.00;99.90;;;;;;4851892;29;20151;-85
2022/10/17 05:01:12;;;;;;;18.85;14.95;;;14.00;99.90;;;;;;4851758;29;20623;-84
2022/10/17 05:03:38;;;;;;;20.52;14.73;;;13.90;99.90;;;;;;4865937;29;20075;-85
2022/10/17 05:06:05;;;;;;;21.17;14.68;;;14.10;99.90;;;;;;4877287;29;20051;-84
2022/10/17 05:08:31;;;;;;;21.88;14.82;;;14.10;99.90;;;;;;4854974;29;20044;-84
2022/10/17 05:10:57;;;;;;;18.63;14.52;;;13.90;99.90;;;;;;4875044;29;20072;-85
2022/10/17 05:13:23;;;;;;;20.50;15.77;;;13.90;99.90;;;;;;4871902;29;20119;-85
2022/10/17 05:15:49;;;;;;;18.00;14.70;;;14.10;99.90;;;;;;4871255;29;20498;-85
2022/10/17 05:18:15;;;;;;;19.73;15.02;;;14.00;99.90;;;;;;4868851;29;20036;-85
2022/10/17 05:20:40;;;;;;;18.75;14.77;;;14.10;99.90;;;;;;4863914;29;20099;-85
2022/10/17 05:23:06;;;;;;;19.42;14.90;;;14.00;99.90;;;;;;4884372;29;20986;-85
2022/10/17 05:25:32;;;;;;;21.08;14.98;;;13.90;99.90;;;;;;4854639;29;20045;-85
2022/10/17 05:27:57;;;;;;;17.17;13.95;;;14.00;99.90;;;;;;4851472;29;20111;-84
2022/10/17 05:30:23;;;;;;;16.92;13.32;;;14.10;99.90;;;;;;4853240;29;20357;-84
2022/10/17 05:32:53;;;;;;;17.13;14.18;;;14.20;99.90;;;;;;4849975;29;20044;-84
2022/10/17 05:35:22;;;;;;;19.83;14.40;;;14.10;99.90;;;;;;4855227;29;20357;-84
2022/10/17 05:37:48;;;;;;;23.17;14.55;;;14.10;99.90;;;;;;4869629;29;20605;-85
2022/10/17 05:40:13;;;;;;;17.27;14.13;;;14.20;99.90;;;;;;4867695;29;20052;-85
2022/10/17 05:42:39;;;;;;;18.08;14.18;;;14.00;99.90;;;;;;4850525;29;20045;-85
2022/10/17 05:45:05;;;;;;;23.33;13.98;;;14.20;99.90;;;;;;4868970;29;20321;-84
2022/10/17 05:47:36;;;;;;;20.40;15.25;;;14.00;99.90;;;;;;4866793;29;20053;-84
2022/10/17 05:50:02;;;;;;;20.70;14.85;;;14.00;99.90;;;;;;4877572;29;20044;-84
2022/10/17 05:52:28;;;;;;;21.27;15.73;;;14.10;99.90;;;;;;4853421;29;20041;-85
2022/10/17 05:54:54;;;;;;;22.63;15.52;;;14.30;99.90;;;;;;4886286;29;20064;-85
2022/10/17 05:57:19;;;;;;;19.95;15.43;;;14.20;99.90;;;;;;4849909;29;20071;-85
2022/10/17 05:59:45;;;;;;;21.20;14.80;;;14.20;99.90;;;;;;4853260;29;20044;-85
2022/10/17 06:02:12;;;;;;;20.08;13.85;;;14.20;99.90;;;;;;4868556;29;20152;-84
2022/10/17 06:04:44;;;;;;;19.30;13.82;;;14.40;99.90;;;;;;4868742;29;20403;-85
2022/10/17 06:07:13;;;;;;;20.30;14.32;;;14.60;99.90;;;;;;4879378;29;20076;-85
2022/10/17 06:09:38;;;;;;;20.05;13.68;;;14.40;99.90;;;;;;4854064;29;20112;-84
2022/10/17 06:12:05;;;;;;;19.63;13.35;;;14.50;99.90;;;;;;4853447;29;20108;-85
2022/10/17 06:14:30;;;;;;;19.70;13.80;;;14.30;99.90;;;;;;4867254;29;20060;-85
2022/10/17 06:16:56;;;;;;;19.15;13.48;;;14.50;99.90;;;;;;4871234;29;20044;-85
2022/10/17 06:19:22;;;;;;;20.88;14.45;;;14.60;99.90;;;;;;4851759;29;20291;-85
2022/10/17 06:21:47;;;;;;;20.98;13.73;;;14.70;99.90;;;;;;4864047;29;20413;-85
2022/10/17 06:24:13;;;;;;;21.73;14.02;;;14.50;99.90;;;;;;4867995;29;20071;-86
2022/10/17 06:26:39;;;;;;;23.90;14.20;;;14.60;99.90;;;;;;4852156;29;20052;-84
2022/10/17 06:29:04;;;;;;;19.42;14.13;;;14.80;99.90;;;;;;4881322;29;20055;-85
2022/10/17 06:31:30;;;;;;;25.80;14.63;;;14.70;99.90;;;;;;4882713;29;20070;-85
2022/10/17 06:33:55;;;;;;;23.95;14.88;;;14.80;99.90;;;;;;4868288;29;20072;-85
2022/10/17 06:36:24;;;;;;;21.75;14.80;;;15.10;99.90;;;;;;4855046;29;20471;-85
2022/10/17 06:38:50;;;;;;;24.05;14.13;;;15.00;99.90;;;;;;4864803;29;20468;-85
2022/10/17 06:41:18;;;;;;;21.80;14.13;;;14.80;99.90;;;;;;4868585;29;20135;-85
2022/10/17 06:43:45;;;;;;;17.80;13.18;;;15.00;99.90;;;;;;4854683;29;20455;-84
2022/10/17 06:46:16;;;;;;;19.55;13.90;;;14.80;99.90;;;;;;4852854;29;20036;-85
2022/10/17 06:48:42;;;;;;;18.80;13.73;;;14.80;99.90;;;;;;4852385;29;20084;-85
2022/10/17 06:51:10;;;;;;;18.33;13.65;;;15.10;99.90;;;;;;4854741;29;20044;-85
2022/10/17 06:53:38;;;;;;;17.13;13.60;;;15.20;99.90;;;;;;4868141;29;20041;-85
2022/10/17 06:56:05;;;;;;;19.17;13.98;;;15.00;99.90;;;;;;4867181;29;20603;-85
2022/10/17 06:58:33;;;;;;;22.08;13.43;;;15.10;99.90;;;;;;4867045;29;20135;-85
2022/10/17 07:01:04;;;;;;;16.80;12.63;;;15.30;99.90;;;;;;4855883;29;20546;-84
2022/10/17 07:03:30;;;;;;;17.80;13.48;;;15.40;99.90;;;;;;4850404;29;20044;-85
2022/10/17 07:05:57;;;;;;;19.38;12.75;;;15.20;99.90;;;;;;4867944;29;20386;-84
2022/10/17 07:08:23;;;;;;;18.70;12.70;;;15.30;99.90;;;;;;4870899;29;20096;-85
2022/10/17 07:10:49;;;;;;;18.33;13.32;;;15.50;99.90;;;;;;4869461;29;20048;-85
2022/10/17 07:13:16;;;;;;;18.27;12.57;;;15.50;99.90;;;;;;4870170;29;20368;-85
2022/10/17 07:15:41;;;;;;;19.27;13.63;;;15.30;99.90;;;;;;4858459;29;20106;-85
2022/10/17 07:18:07;;;;;;;16.90;12.45;;;15.50;99.90;;;;;;4854563;29;20048;-85
2022/10/17 07:20:33;;;;;;;16.75;12.57;;;15.60;99.90;;;;;;4870321;29;20047;-85
2022/10/17 07:22:59;;;;;;;17.55;12.38;;;15.70;99.90;;;;;;4855644;29;20037;-85
2022/10/17 07:25:25;;;;;;;17.67;12.55;;;15.70;99.90;;;;;;4872719;29;20637;-85
2022/10/17 07:27:54;;;;;;;14.05;11.82;;;16.00;99.90;;;;;;4867495;29;20045;-85
2022/10/17 07:30:20;;;;;;;16.20;11.93;;;15.80;99.90;;;;;;4854668;29;20143;-85
2022/10/17 07:32:46;;;;;;;23.55;12.15;;;16.10;99.90;;;;;;4881195;29;20127;-85
2022/10/17 07:35:12;;;;;;;17.98;11.23;;;16.20;99.90;;;;;;4854255;29;20043;-85
2022/10/17 07:37:38;;;;;;;16.95;11.82;;;16.10;99.90;;;;;;4858815;29;20036;-85
2022/10/17 07:40:06;;;;;;;16.75;11.20;;;16.30;99.90;;;;;;4869514;29;20524;-85
2022/10/17 07:42:34;;;;;;;15.00;11.10;;;16.50;99.90;;;;;;4869939;29;20105;-85
2022/10/17 07:45:01;;;;;;;15.05;11.93;;;16.50;99.90;;;;;;4856325;29;20499;-85
2022/10/17 07:47:26;;;;;;;12.68;10.02;;;16.50;99.90;;;;;;4868951;29;20455;-85
2022/10/17 07:49:52;;;;;;;16.65;10.73;;;16.40;99.90;;;;;;4854373;29;20139;-86
2022/10/17 07:52:18;;;;;;;13.85;10.18;;;16.70;99.90;;;;;;4886403;29;20136;-84
2022/10/17 07:54:44;;;;;;;15.32;10.40;;;16.50;99.90;;;;;;4872505;29;20420;-85
2022/10/17 07:57:12;;;;;;;15.48;11.07;;;16.80;99.90;;;;;;4856746;29;20183;-85
2022/10/17 07:59:38;;;;;;;13.60;10.25;;;16.90;99.90;;;;;;4872081;29;20056;-85
2022/10/17 08:02:06;;;;;;;14.20;10.13;;;17.00;99.90;;;;;;4854672;29;20432;-85
2022/10/17 08:04:33;;;;;;;15.25;9.57;;;16.70;99.90;;;;;;4852087;29;20762;-85
2022/10/17 08:06:59;;;;;;;14.43;10.18;;;16.80;99.90;;;;;;4870330;29;20048;-85
2022/10/17 08:09:25;;;;;;;12.27;9.80;;;16.80;99.90;;;;;;4873197;29;20786;-85
2022/10/17 08:11:51;;;;;;;16.63;10.27;;;17.20;99.90;;;;;;4873499;29;20055;-85
2022/10/17 08:14:16;;;;;;;14.82;9.73;;;17.00;99.90;;;;;;4854273;29;20511;-85
2022/10/17 08:16:42;;;;;;;19.63;11.13;;;17.10;99.90;;;;;;4871211;29;20060;-85
2022/10/17 08:19:10;;;;;;;11.65;9.88;;;17.30;99.90;;;;;;4853594;29;20044;-85
2022/10/17 08:21:36;;;;;;;20.17;10.80;;;17.20;99.90;;;;;;4855006;29;20045;-86
2022/10/17 08:24:02;;;;;;;15.15;9.75;;;17.20;99.90;;;;;;4874507;29;20127;-84
2022/10/17 08:26:28;;;;;;;12.20;9.90;;;17.10;99.90;;;;;;4858890;29;20036;-85
2022/10/17 08:28:57;;;;;;;12.43;8.82;;;17.10;99.90;;;;;;4860304;29;20040;-85
2022/10/17 08:31:22;;;;;;;12.50;8.88;;;17.10;99.90;;;;;;4851622;29;20490;-86
2022/10/17 08:33:49;;;;;;;15.45;10.48;;;17.20;99.90;;;;;;4854918;29;20072;-85
2022/10/17 08:36:17;;;;;;;13.27;8.88;;;17.20;99.90;;;;;;4871328;29;20110;-84
2022/10/17 08:38:43;;;;;;;15.38;9.38;;;17.30;99.90;;;;;;4873210;29;20414;-86
2022/10/17 08:41:24;;;;;;;12.77;8.55;;;17.30;99.90;;;;;;4870453;29;20041;-85
2022/10/17 08:44:28;;;;;;;14.20;8.88;;;17.50;99.90;;;;;;4867707;29;20617;-85
2022/10/17 08:46:58;;;;;;;15.73;8.48;;;17.30;99.90;;;;;;4874097;29;20136;-85
2022/10/17 08:49:47;;;;;;;13.57;8.73;;;17.40;99.90;;;;;;4867602;29;20055;-86
2022/10/17 08:52:47;;;;;;;11.50;8.77;;;17.50;99.90;;;;;;4895287;29;20036;-85
2022/10/17 08:55:17;;;;;;;11.40;8.48;;;17.70;99.90;;;;;;4873240;29;20051;-86
2022/10/17 08:57:43;;;;;;;9.73;8.23;;;17.50;99.90;;;;;;4856583;29;20742;-85
2022/10/17 09:00:20;;;;;;;13.18;8.88;;;17.50;99.90;;;;;;4855672;29;20446;-85
2022/10/17 09:03:05;;;;;;;17.15;8.70;;;17.50;99.90;;;;;;4870656;29;20043;-85
2022/10/17 09:05:37;;;;;;;14.20;8.35;;;17.50;99.90;;;;;;4871679;29;20099;-85
2022/10/17 09:08:21;;;;;;;8.98;7.90;;;17.60;99.90;;;;;;4855533;29;20424;-85
2022/10/17 09:11:02;;;;;;;11.50;8.55;;;17.60;99.90;;;;;;4874504;29;20044;-85
2022/10/17 09:14:07;;;;;;;9.52;8.05;;;17.90;99.90;;;;;;4860987;29;20043;-85
2022/10/17 09:16:53;;;;;;;11.90;7.67;;;18.00;99.90;;;;;;4844477;29;20068;-85
2022/10/17 09:19:24;;;;;;;10.13;7.80;;;17.80;99.90;;;;;;4867859;29;20348;-86
2022/10/17 09:22:04;;;;;;;13.57;7.95;;;18.10;99.90;;;;;;4873193;29;20058;-86
2022/10/17 09:24:54;;;;;;;10.32;8.07;;;18.10;99.90;;;;;;4870199;29;20408;-85
2022/10/17 09:27:49;;;;;;;13.05;7.80;;;17.80;99.90;;;;;;4865365;29;20129;-85
2022/10/17 09:30:38;;;;;;;11.65;8.38;;;17.80;99.90;;;;;;4855137;29;20163;-85
2022/10/17 09:33:29;;;;;;;10.32;7.68;;;17.70;99.90;;;;;;4849093;29;20040;-85
2022/10/17 09:35:57;;;;;;;13.35;7.97;;;17.70;99.90;;;;;;4853761;29;20044;-86
2022/10/17 09:38:27;;;;;;;9.45;7.47;;;17.70;99.90;;;;;;4855642;29;20045;-86
2022/10/17 09:41:00;;;;;;;11.05;7.93;;;17.90;99.90;;;;;;4855215;29;20045;-85
2022/10/17 09:43:26;;;;;;;11.70;7.78;;;17.90;99.90;;;;;;4866949;29;20096;-85
2022/10/17 09:46:10;;;;;;;11.27;7.25;;;17.70;99.90;;;;;;4867666;29;20163;-86
2022/10/17 09:48:42;;;;;;;12.75;7.80;;;17.80;99.90;;;;;;4866671;29;20404;-86
2022/10/17 09:51:08;;;;;;;8.75;7.68;;;18.00;99.90;;;;;;4856571;29;20048;-87
2022/10/17 09:53:37;;;;;;;15.30;7.75;;;17.80;99.90;;;;;;4879212;29;20111;-86
2022/10/17 09:56:16;;;;;;;13.07;8.20;;;17.70;99.90;;;;;;4871003;29;20401;-86
2022/10/17 09:58:56;;;;;;;13.85;8.65;;;17.80;99.90;;;;;;4866895;29;20432;-86
2022/10/17 10:01:28;;;;;;;14.55;9.02;;;17.60;99.90;;;;;;4855907;29;20059;-86
2022/10/17 10:04:12;;;;;;;12.38;8.45;;;17.70;99.90;;;;;;4854052;29;20067;-87
2022/10/17 10:06:39;;;;;;;11.15;8.63;;;17.80;99.90;;;;;;4856067;29;20083;-87
2022/10/17 10:09:06;;;;;;;11.57;8.85;;;17.50;99.90;;;;;;4854008;29;20349;-87
2022/10/17 10:11:55;;;;;;;12.25;9.20;;;17.40;99.90;;;;;;4870747;29;20448;-87
2022/10/17 10:14:34;;;;;;;11.18;8.98;;;17.30;99.90;;;;;;4869743;29;20331;-86
2022/10/17 10:17:01;;;;;;;12.68;9.52;;;17.60;99.90;;;;;;4852952;29;20040;-86
2022/10/17 10:19:30;;;;;;;17.48;10.25;;;17.60;99.90;;;;;;4849913;29;20044;-86
2022/10/17 10:22:07;;;;;;;11.27;8.30;;;17.30;99.90;;;;;;4851308;29;20036;-87
2022/10/17 10:24:33;;;;;;;14.93;8.85;;;17.20;99.90;;;;;;4873738;29;20360;-86
2022/10/17 10:27:03;;;;;;;13.13;9.40;;;17.60;99.90;;;;;;4869715;29;20115;-86
2022/10/17 10:29:33;;;;;;;11.32;9.07;;;17.50;99.90;;;;;;4853902;29;20048;-87
2022/10/17 10:32:28;;;;;;;13.27;8.70;;;17.40;99.90;;;;;;4868188;29;20100;-86
2022/10/17 10:35:05;;;;;;;15.40;8.55;;;17.30;99.90;;;;;;4862859;29;20044;-85
2022/10/17 10:37:42;;;;;;;12.68;9.10;;;17.60;99.90;;;;;;4861882;29;20332;-86
2022/10/17 10:40:26;;;;;;;14.07;8.85;;;17.70;99.90;;;;;;4869283;29;20056;-86
2022/10/17 10:42:57;;;;;;;13.63;9.75;;;17.40;99.90;;;;;;4872658;29;20040;-86
2022/10/17 10:45:39;;;;;;;14.05;9.13;;;17.40;99.90;;;;;;4863497;29;20445;-86
2022/10/17 10:48:24;;;;;;;14.80;9.48;;;17.70;99.90;;;;;;4865968;29;20057;-86
2022/10/17 10:51:13;;;;;;;12.85;8.60;;;17.50;99.90;;;;;;4851049;29;20100;-87
2022/10/17 10:54:01;;;;;;;12.68;9.60;;;17.60;99.90;;;;;;4885145;29;20045;-86
2022/10/17 10:56:48;;;;;;;14.85;9.88;;;17.40;99.90;;;;;;4878206;29;20052;-86
2022/10/17 10:59:39;;;;;;;15.07;9.40;;;17.40;99.90;;;;;;4865041;29;20052;-86
2022/10/17 11:02:22;;;;;;;15.63;9.27;;;17.70;99.90;;;;;;4855995;29;20519;-85
2022/10/17 11:05:02;;;;;;;16.85;9.30;;;17.70;99.90;;;;;;4866532;29;20044;-86
2022/10/17 11:07:51;;;;;;;16.17;10.05;;;17.70;99.90;;;;;;4857453;29;20037;-86
2022/10/17 11:10:36;;;;;;;16.27;9.93;;;17.70;99.90;;;;;;4856232;29;21195;-86
2022/10/17 11:13:14;;;;;;;12.40;9.18;;;17.50;99.90;;;;;;4870792;29;20040;-86
2022/10/17 11:15:46;;;;;;;16.70;9.50;;;17.50;99.90;;;;;;4869755;29;20044;-86
2022/10/17 11:18:32;;;;;;;15.20;9.95;;;17.70;99.90;;;;;;4873098;29;20135;-86
2022/10/17 11:21:22;;;;;;;14.63;9.57;;;17.80;99.90;;;;;;4858507;29;20506;-86
2022/10/17 11:24:14;;;;;;;10.57;8.73;;;17.70;99.90;;;;;;4887207;29;20052;-86
2022/10/17 11:26:48;;;;;;;13.68;9.23;;;18.00;99.90;;;;;;4855952;29;20048;-86
2022/10/17 11:29:13;;;;;;;12.25;9.20;;;18.00;99.90;;;;;;4860004;29;20072;-87
2022/10/17 11:31:46;;;;;;;15.07;9.32;;;17.80;99.90;;;;;;4859334;29;20156;-86
2022/10/17 11:34:28;;;;;;;12.32;9.27;;;17.80;99.90;;;;;;4857684;29;20484;-86
2022/10/17 11:37:05;;;;;;;13.18;9.32;;;17.60;99.90;;;;;;4886177;29;20488;-85
2022/10/17 11:40:03;;;;;;;15.32;9.68;;;17.70;99.90;;;;;;4857284;29;20100;-85
2022/10/17 11:42:51;;;;;;;16.77;8.88;;;17.50;99.90;;;;;;4862323;29;20057;-85
2022/10/17 11:45:20;;;;;;;14.88;8.68;;;17.90;99.90;;;;;;4888664;29;20044;-86
2022/10/17 11:47:53;;;;;;;12.70;9.35;;;17.90;99.90;;;;;;4858321;29;20053;-85
2022/10/17 11:50:29;;;;;;;10.93;8.70;;;17.90;99.90;;;;;;4874860;29;20401;-86
2022/10/17 11:53:04;;;;;;;12.85;8.80;;;17.60;99.90;;;;;;4865506;29;20047;-86
2022/10/17 11:55:31;;;;;;;14.55;10.23;;;17.60;99.90;;;;;;4869055;29;20221;-87
2022/10/17 11:58:31;;;;;;;11.70;9.05;;;17.90;99.90;;;;;;4853434;29;20582;-86
2022/10/17 12:01:08;;;;;;;16.00;9.82;;;17.60;99.90;;;;;;4870726;29;20044;-86
2022/10/17 12:03:39;;;;;;;12.55;9.48;;;18.00;99.90;;;;;;4887094;29;20043;-86
2022/10/17 12:06:33;;;;;;;13.63;9.43;;;17.80;99.90;;;;;;4856800;29;20423;-86
2022/10/17 12:09:21;;;;;;;13.18;8.95;;;17.90;99.90;;;;;;4879114;29;20072;-86
2022/10/17 12:11:59;;;;;;;14.43;9.23;;;18.20;99.90;;;;;;4868555;29;20051;-85
2022/10/17 12:15:03;;;;;;;11.10;8.65;;;18.10;99.90;;;;;;4872187;29;20147;-86
2022/10/17 12:17:35;;;;;;;13.02;8.07;;;18.30;99.90;;;;;;4840556;29;20060;-85
2022/10/17 12:20:34;;;;;;;17.70;8.15;;;18.30;99.90;;;;;;4856000;29;20041;-86
2022/10/17 12:23:09;;;;;;;11.23;7.15;;;18.20;99.90;;;;;;4871718;29;20048;-86
2022/10/17 12:25:38;;;;;;;10.57;6.93;;;17.80;99.90;;;;;;4857147;29;20079;-86
2022/10/17 12:28:14;;;;;;;10.25;7.13;;;18.20;99.90;;;;;;4854222;29;20425;-85
2022/10/17 12:30:53;;;;;;;9.65;7.00;;;18.00;99.90;;;;;;4855498;29;20040;-85
2022/10/17 12:33:33;;;;;;;10.95;7.28;;;17.90;99.90;;;;;;4855519;29;20306;-86
2022/10/17 12:36:17;;;;;;;11.27;7.20;;;17.80;99.90;;;;;;4871762;29;20388;-85
2022/10/17 12:39:13;;;;;;;11.57;6.78;;;18.30;99.90;;;;;;4872536;29;20095;-86
2022/10/17 12:41:39;;;;;;;10.27;6.72;;;17.90;99.90;;;;;;4870453;29;20317;-86
2022/10/17 12:44:25;;;;;;;11.25;7.20;;;18.20;99.90;;;;;;4871494;29;20072;-86
2022/10/17 12:47:27;;;;;;;11.95;6.93;;;18.00;99.90;;;;;;4883278;29;20297;-86
2022/10/17 12:49:53;;;;;;;10.77;7.15;;;18.40;99.90;;;;;;4872041;29;20328;-85
2022/10/17 12:52:42;;;;;;;8.60;7.38;;;18.00;99.90;;;;;;4858446;29;20232;-85
2022/10/17 12:55:22;;;;;;;13.35;6.63;;;17.90;99.90;;;;;;4849916;29;20052;-85
2022/10/17 12:57:50;;;;;;;17.88;7.13;;;18.00;99.90;;;;;;4882642;29;20064;-85
2022/10/17 13:00:50;;;;;;;9.57;6.72;;;18.10;99.90;;;;;;4854932;29;20051;-86